Terminal Aerodrome Forecast
Issued by NWS Tampa Bay Area, FL

Home | Current Version | Previous Version | Text Only | Print | Product List | Glossary On
Versions: 1 2 3 4 5 6 7 8 9 10 11 12
FTUS42 KTBW 010539
KSRQ 010539Z 0106/0206 08005KT P6SM SCT050 SCT250
     FM011000 08004KT 5SM BR SCT003
     FM011400 10006KT P6SM FEW010 SCT030 SCT250
     FM011600 13007KT P6SM SCT035 SCT250
     FM011800 25007KT P6SM SCT040 SCT250
     FM012000 27008KT P6SM BKN050
     FM012300 31005KT P6SM BKN050
     FM020200 VRB03KT P6SM SCT050 BKN250=

USA.gov is the U.S. government's official web portal to all federal, state and local government web resources and services.